createdAt,value
2019-06-20T00:01:31.907Z,20.20
2019-06-20T00:04:03.773Z,20.20
2019-06-20T00:06:32.433Z,20.30
2019-06-20T00:09:08.196Z,20.20
2019-06-20T00:11:37.402Z,20.20
2019-06-20T00:14:08.197Z,20.10
2019-06-20T00:16:44.669Z,20.00
2019-06-20T00:19:13.941Z,19.90
2019-06-20T00:21:43.467Z,19.70
2019-06-20T00:24:11.919Z,19.80
2019-06-20T00:26:49.945Z,19.70
2019-06-20T00:29:18.667Z,19.70
2019-06-20T00:31:48.822Z,19.70
2019-06-20T00:34:17.349Z,19.70
2019-06-20T00:36:46.354Z,19.90
2019-06-20T00:39:14.595Z,19.80
2019-06-20T00:41:49.145Z,19.80
2019-06-20T00:44:24.666Z,19.80
2019-06-20T00:46:56.045Z,19.70
2019-06-20T00:49:26.453Z,19.70
2019-06-20T00:51:56.944Z,19.70
2019-06-20T00:54:27.855Z,19.80
2019-06-20T00:56:56.817Z,19.60
2019-06-20T00:59:28.297Z,19.80
2019-06-20T01:01:56.592Z,19.60
2019-06-20T01:04:24.637Z,19.80
2019-06-20T01:06:59.562Z,19.80
2019-06-20T01:09:32.454Z,19.80
2019-06-20T01:12:01.666Z,19.80
2019-06-20T01:14:41.773Z,19.80
2019-06-20T01:17:10.710Z,19.80
2019-06-20T01:19:40.475Z,19.70
2019-06-20T01:22:11.084Z,19.70
2019-06-20T01:24:39.692Z,19.70
2019-06-20T01:27:14.529Z,19.70
2019-06-20T01:29:39.630Z,19.70
2019-06-20T01:32:08.106Z,19.60
2019-06-20T01:34:39.306Z,19.60
2019-06-20T01:37:11.521Z,19.60
2019-06-20T01:39:42.232Z,19.50
2019-06-20T01:42:14.937Z,19.50
2019-06-20T01:44:43.682Z,19.50
2019-06-20T01:47:13.066Z,19.60
2019-06-20T01:50:00.990Z,19.50
2019-06-20T01:52:39.250Z,19.50
2019-06-20T01:55:09.255Z,19.50
2019-06-20T01:57:41.903Z,19.50
2019-06-20T02:00:25.976Z,19.50
2019-06-20T02:03:00.855Z,19.50
2019-06-20T02:05:33.789Z,19.50
2019-06-20T02:08:03.353Z,19.50
2019-06-20T02:10:39.364Z,19.50
2019-06-20T02:13:14.917Z,19.40
2019-06-20T02:15:43.954Z,19.40
2019-06-20T02:18:16.597Z,19.30
2019-06-20T02:20:53.188Z,19.30
2019-06-20T02:23:23.558Z,19.30
2019-06-20T02:26:11.954Z,19.30
2019-06-20T02:28:45.150Z,19.40
2019-06-20T02:31:33.099Z,19.50
2019-06-20T02:34:10.689Z,19.50
2019-06-20T02:37:01.156Z,19.60
2019-06-20T02:39:34.152Z,19.70
2019-06-20T02:42:11.521Z,19.70
2019-06-20T02:45:02.288Z,19.60
2019-06-20T02:47:41.443Z,19.60
2019-06-20T02:50:19.607Z,19.70
2019-06-20T02:53:17.626Z,19.50
2019-06-20T02:55:46.987Z,19.50
2019-06-20T02:58:27.468Z,19.50
2019-06-20T03:01:01.054Z,19.50
2019-06-20T03:03:36.771Z,19.50
2019-06-20T03:06:32.562Z,19.50
2019-06-20T03:09:05.971Z,19.60
2019-06-20T03:11:34.384Z,19.50
2019-06-20T03:14:10.411Z,19.50
2019-06-20T03:16:42.368Z,19.50
2019-06-20T03:19:28.182Z,19.50
2019-06-20T03:28:58.050Z,19.50
2019-06-20T03:31:31.099Z,19.80
2019-06-20T03:34:05.195Z,19.90
2019-06-20T03:36:55.721Z,19.90
2019-06-20T03:39:26.109Z,20.00
2019-06-20T03:42:24.876Z,20.10
2019-06-20T03:45:31.332Z,20.10
2019-06-20T03:47:59.834Z,20.10
2019-06-20T03:50:29.584Z,20.10
2019-06-20T03:53:01.121Z,20.20
2019-06-20T03:55:45.535Z,20.20
2019-06-20T03:58:19.246Z,20.30
2019-06-20T04:01:03.687Z,20.30
2019-06-20T04:03:36.301Z,20.40
2019-06-20T04:06:07.986Z,20.50
2019-06-20T04:08:42.306Z,20.60
2019-06-20T04:11:13.796Z,20.70
2019-06-20T04:13:45.531Z,20.70
2019-06-20T04:16:14.296Z,20.80
2019-06-20T04:18:46.293Z,20.80
2019-06-20T04:21:14.736Z,20.70
2019-06-20T04:23:44.757Z,20.90
2019-06-20T04:26:13.486Z,20.80
2019-06-20T04:28:41.780Z,21.10
2019-06-20T04:31:11.257Z,21.20
2019-06-20T04:33:44.450Z,21.30
2019-06-20T04:36:15.125Z,21.50
2019-06-20T04:38:44.080Z,21.60
2019-06-20T04:41:19.914Z,21.70
2019-06-20T04:43:51.391Z,21.80
2019-06-20T04:46:32.783Z,22.00
2019-06-20T04:49:03.136Z,22.10
2019-06-20T04:51:40.708Z,22.30
2019-06-20T04:54:14.025Z,22.50
2019-06-20T04:56:46.373Z,22.50
2019-06-20T04:59:25.049Z,22.60
2019-06-20T05:01:59.193Z,22.70
2019-06-20T05:04:39.669Z,23.00
2019-06-20T05:07:21.839Z,23.00
2019-06-20T05:09:59.749Z,23.40
2019-06-20T05:12:28.828Z,23.40
2019-06-20T05:15:19.320Z,23.80
2019-06-20T05:17:59.720Z,24.10
2019-06-20T05:20:37.630Z,24.50
2019-06-20T05:23:18.647Z,24.60
2019-06-20T05:25:47.153Z,24.50
2019-06-20T05:28:15.550Z,24.40
2019-06-20T05:30:44.272Z,24.20
2019-06-20T05:33:13.241Z,24.00
2019-06-20T05:35:48.021Z,23.80
2019-06-20T05:38:20.041Z,23.70
2019-06-20T05:40:59.613Z,23.50
2019-06-20T05:43:35.027Z,23.40
2019-06-20T05:46:09.293Z,23.30
2019-06-20T05:48:35.508Z,23.30
2019-06-20T05:51:04.370Z,23.20
2019-06-20T05:53:32.786Z,23.10
2019-06-20T05:56:06.820Z,23.10
2019-06-20T05:58:40.036Z,23.10
2019-06-20T06:01:09.708Z,23.00
2019-06-20T06:03:39.239Z,23.00
2019-06-20T06:06:10.042Z,22.90
2019-06-20T06:08:40.278Z,22.80
2019-06-20T06:11:08.628Z,22.70
2019-06-20T06:13:38.275Z,22.70
2019-06-20T06:16:25.711Z,22.70
2019-06-20T06:18:43.073Z,22.60
2019-06-20T06:21:11.935Z,22.50
2019-06-20T06:23:45.677Z,22.50
2019-06-20T06:26:17.008Z,22.50
2019-06-20T06:28:55.006Z,22.60
2019-06-20T06:31:23.368Z,22.40
2019-06-20T06:33:51.956Z,22.40
2019-06-20T06:36:23.067Z,22.40
2019-06-20T06:39:00.848Z,22.40
2019-06-20T06:41:30.413Z,22.40
2019-06-20T06:44:00.976Z,22.50
2019-06-20T06:46:44.758Z,22.50
2019-06-20T06:49:08.593Z,22.50
2019-06-20T06:51:38.251Z,22.60
2019-06-20T06:54:07.140Z,22.60
2019-06-20T06:56:38.429Z,22.80
2019-06-20T06:59:07.285Z,22.90
2019-06-20T07:01:44.422Z,23.10
2019-06-20T07:04:18.834Z,23.20
2019-06-20T07:06:53.245Z,23.20
2019-06-20T07:09:30.871Z,23.40
2019-06-20T07:12:00.101Z,23.40
2019-06-20T07:14:30.014Z,23.40
2019-06-20T07:17:00.943Z,23.40
2019-06-20T07:19:37.155Z,23.50
2019-06-20T07:22:08.768Z,23.60
2019-06-20T07:24:37.755Z,23.70
2019-06-20T07:27:07.723Z,23.60
2019-06-20T07:29:36.578Z,23.60
2019-06-20T07:32:05.065Z,23.70
2019-06-20T07:34:38.838Z,23.70
2019-06-20T07:37:10.110Z,23.80
2019-06-20T07:39:49.578Z,23.90
2019-06-20T07:42:19.697Z,24.20
2019-06-20T07:45:00.200Z,24.30
2019-06-20T07:47:42.877Z,24.50
2019-06-20T07:50:27.682Z,24.50
2019-06-20T07:53:01.910Z,24.70
2019-06-20T07:55:29.295Z,25.00
2019-06-20T07:57:59.575Z,25.10
2019-06-20T08:00:28.245Z,25.20
2019-06-20T08:02:57.408Z,25.30
2019-06-20T08:05:35.217Z,25.40
2019-06-20T08:08:12.618Z,25.50
2019-06-20T08:10:44.615Z,25.90
2019-06-20T08:13:44.812Z,26.30
2019-06-20T08:16:20.554Z,26.30
2019-06-20T08:18:49.263Z,26.40
2019-06-20T08:21:22.558Z,26.60
2019-06-20T08:24:17.474Z,26.60
2019-06-20T08:26:52.106Z,27.30
2019-06-20T08:29:34.372Z,27.70
2019-06-20T08:32:57.450Z,27.50
2019-06-20T08:35:30.526Z,27.40
2019-06-20T08:38:07.591Z,27.50
2019-06-20T08:40:41.927Z,27.90
2019-06-20T08:43:15.824Z,28.00
2019-06-20T08:45:48.013Z,27.90
2019-06-20T08:48:18.778Z,27.90
2019-06-20T08:53:57.526Z,28.00
2019-06-20T08:56:48.175Z,28.10
2019-06-20T08:59:26.890Z,28.40
2019-06-20T09:02:25.969Z,28.40
2019-06-20T09:07:35.919Z,28.40
2019-06-20T09:10:12.157Z,28.70
2019-06-20T09:12:50.744Z,28.60
2019-06-20T09:15:48.226Z,28.50
2019-06-20T09:18:29.100Z,28.60
2019-06-20T09:21:02.785Z,28.90
2019-06-20T09:23:57.818Z,29.00
2019-06-20T09:26:37.644Z,28.80
2019-06-20T09:29:16.139Z,28.60
2019-06-20T09:31:45.890Z,28.50
2019-06-20T09:34:14.475Z,28.50
2019-06-20T09:36:52.019Z,28.40
2019-06-20T09:39:23.851Z,28.20
2019-06-20T09:41:52.748Z,28.00
2019-06-20T09:44:38.041Z,27.60
2019-06-20T09:47:06.706Z,27.50
2019-06-20T09:49:36.725Z,27.30
2019-06-20T09:52:07.936Z,27.20
2019-06-20T09:54:36.615Z,27.00
2019-06-20T09:57:05.023Z,26.80
2019-06-20T09:59:35.214Z,26.60
2019-06-20T10:02:42.270Z,26.60
2019-06-20T10:05:25.293Z,26.50
2019-06-20T10:08:17.209Z,26.60
2019-06-20T10:11:07.404Z,26.50
2019-06-20T10:13:48.547Z,26.50
2019-06-20T10:19:52.076Z,26.60
2019-06-20T10:22:28.413Z,26.60
2019-06-20T10:24:59.754Z,26.60
2019-06-20T10:27:28.872Z,26.30
2019-06-20T10:30:13.377Z,26.70
2019-06-20T10:32:34.796Z,26.60
2019-06-20T10:35:03.607Z,26.60
2019-06-20T10:37:56.943Z,26.40
2019-06-20T10:40:27.028Z,26.50
2019-06-20T10:42:56.909Z,26.60
2019-06-20T10:45:28.915Z,26.60
2019-06-20T10:48:08.084Z,26.80
2019-06-20T10:50:36.652Z,27.00
2019-06-20T10:53:14.419Z,27.30
2019-06-20T10:56:10.238Z,27.50
2019-06-20T10:58:48.446Z,27.80
2019-06-20T11:01:44.298Z,27.90
2019-06-20T11:04:15.687Z,27.80
2019-06-20T11:06:47.615Z,27.80
2019-06-20T11:09:25.423Z,28.00
2019-06-20T11:11:54.151Z,28.40
2019-06-20T11:14:22.720Z,28.50
2019-06-20T11:16:53.400Z,28.50
2019-06-20T11:19:44.219Z,28.40
2019-06-20T11:22:16.885Z,28.40
2019-06-20T11:25:05.810Z,28.10
2019-06-20T11:27:34.509Z,28.20
2019-06-20T11:30:11.743Z,28.20
2019-06-20T11:32:44.123Z,28.10
2019-06-20T11:35:13.331Z,28.50
2019-06-20T11:37:42.348Z,28.80
2019-06-20T11:40:12.247Z,29.30
2019-06-20T11:42:46.741Z,29.50
2019-06-20T11:45:26.187Z,29.60
2019-06-20T11:48:00.504Z,29.90
2019-06-20T11:50:28.975Z,30.20
2019-06-20T11:52:58.538Z,30.00
2019-06-20T11:55:44.774Z,29.80
2019-06-20T11:58:13.535Z,29.40
2019-06-20T12:00:41.976Z,29.50
2019-06-20T12:03:42.504Z,29.40
2019-06-20T12:06:11.095Z,29.70
2019-06-20T12:08:49.939Z,29.50
2019-06-20T12:11:26.132Z,29.10
2019-06-20T12:14:01.623Z,29.20
2019-06-20T12:16:30.423Z,28.70
2019-06-20T12:19:00.656Z,28.70
2019-06-20T12:21:54.975Z,28.60
2019-06-20T12:24:46.677Z,28.70
2019-06-20T12:27:45.532Z,28.80
2019-06-20T12:30:14.419Z,28.60
2019-06-20T12:32:44.876Z,28.80
2019-06-20T12:35:13.721Z,29.00
2019-06-20T12:37:45.674Z,29.50
2019-06-20T12:40:28.427Z,29.10
2019-06-20T12:45:47.447Z,29.90
2019-06-20T12:48:45.054Z,30.00
2019-06-20T12:51:13.735Z,30.10
2019-06-20T12:53:44.070Z,30.30
2019-06-20T12:56:12.556Z,30.60
2019-06-20T12:58:51.119Z,30.80
2019-06-20T13:01:35.686Z,31.10
2019-06-20T13:03:58.866Z,31.60
2019-06-20T13:06:27.172Z,31.70
2019-06-20T13:09:00.577Z,31.80
2019-06-20T13:11:29.375Z,32.20
2019-06-20T13:14:04.004Z,31.90
2019-06-20T13:16:50.406Z,32.20
2019-06-20T13:19:18.843Z,32.30
2019-06-20T13:22:32.405Z,32.60
2019-06-20T13:25:00.985Z,32.30
2019-06-20T13:27:59.214Z,32.10
2019-06-20T13:30:28.078Z,31.70
2019-06-20T13:32:59.692Z,31.90
2019-06-20T13:35:32.180Z,32.00
2019-06-20T13:38:06.431Z,32.40
2019-06-20T13:40:47.430Z,32.40
2019-06-20T13:43:17.975Z,32.40
2019-06-20T13:45:49.891Z,32.40
2019-06-20T13:48:18.581Z,32.20
2019-06-20T13:50:47.506Z,32.90
2019-06-20T13:53:16.248Z,33.50
2019-06-20T13:55:45.830Z,34.50
2019-06-20T13:58:17.596Z,34.90
2019-06-20T14:00:47.909Z,34.80
2019-06-20T14:03:20.671Z,33.50
2019-06-20T14:05:49.904Z,32.60
2019-06-20T14:08:22.889Z,32.00
2019-06-20T14:10:52.286Z,32.00
2019-06-20T14:13:20.980Z,32.20
2019-06-20T14:15:51.255Z,32.40
2019-06-20T14:18:21.969Z,31.90
2019-06-20T14:20:51.889Z,31.60
2019-06-20T14:23:27.244Z,31.10
2019-06-20T14:25:56.310Z,30.80
2019-06-20T14:28:38.090Z,30.90
2019-06-20T14:31:08.380Z,30.90
2019-06-20T14:33:48.484Z,31.10
2019-06-20T14:36:17.376Z,31.40
2019-06-20T14:38:45.953Z,31.80
2019-06-20T14:41:35.886Z,32.10
2019-06-20T14:44:04.584Z,33.30
2019-06-20T14:46:33.309Z,34.70
2019-06-20T14:49:17.101Z,35.80
2019-06-20T14:51:47.151Z,37.10
2019-06-20T14:54:19.497Z,37.90
2019-06-20T14:56:47.893Z,37.80
2019-06-20T14:59:22.202Z,37.60
2019-06-20T15:01:50.701Z,37.70
2019-06-20T15:04:18.864Z,37.80
2019-06-20T15:06:48.402Z,37.70
2019-06-20T15:09:17.029Z,38.00
2019-06-20T15:11:46.621Z,38.30
2019-06-20T15:14:18.080Z,38.60
2019-06-20T15:16:47.904Z,39.10
2019-06-20T15:19:23.475Z,39.20
2019-06-20T15:21:54.243Z,39.20
2019-06-20T15:24:26.360Z,39.00
2019-06-20T15:27:00.452Z,39.10
2019-06-20T15:29:31.584Z,38.90
2019-06-20T15:32:06.779Z,38.80
2019-06-20T15:34:35.050Z,39.10
2019-06-20T15:37:06.530Z,39.40
2019-06-20T15:39:41.102Z,39.70
2019-06-20T15:42:12.760Z,39.40
2019-06-20T15:44:50.579Z,39.10
2019-06-20T15:47:21.421Z,39.40
2019-06-20T15:49:49.807Z,39.90
2019-06-20T15:52:22.585Z,39.50
2019-06-20T15:54:52.633Z,39.70
2019-06-20T15:57:29.554Z,39.40
2019-06-20T15:59:58.316Z,39.40
2019-06-20T16:02:28.857Z,39.00
2019-06-20T16:04:57.691Z,38.40
2019-06-20T16:07:26.234Z,37.40
2019-06-20T16:10:04.266Z,36.20
2019-06-20T16:12:34.803Z,34.80
2019-06-20T16:15:08.083Z,33.60
2019-06-20T16:17:38.740Z,32.80
2019-06-20T16:20:12.699Z,32.40
2019-06-20T16:22:42.530Z,32.20
2019-06-20T16:25:15.889Z,32.00
2019-06-20T16:27:44.302Z,31.90
2019-06-20T16:30:13.151Z,31.60
2019-06-20T16:32:43.373Z,31.60
2019-06-20T16:35:14.945Z,31.50
2019-06-20T16:37:44.407Z,31.40
2019-06-20T16:40:17.653Z,31.30
2019-06-20T16:42:47.212Z,31.30
2019-06-20T16:45:17.968Z,31.30
2019-06-20T16:47:51.580Z,31.20
2019-06-20T16:50:20.074Z,31.00
2019-06-20T16:52:49.930Z,31.00
2019-06-20T16:55:18.764Z,30.80
2019-06-20T16:58:37.444Z,30.60
2019-06-20T17:01:06.425Z,30.40
2019-06-20T17:03:42.026Z,30.30
2019-06-20T17:06:20.102Z,30.30
2019-06-20T17:08:48.831Z,30.20
2019-06-20T17:11:17.172Z,30.00
2019-06-20T17:13:54.808Z,29.60
2019-06-20T17:16:28.641Z,29.30
2019-06-20T17:18:59.318Z,29.10
2019-06-20T17:21:35.753Z,28.90
2019-06-20T17:24:30.145Z,29.00
2019-06-20T17:26:58.915Z,28.90
2019-06-20T17:29:30.946Z,28.60
2019-06-20T17:32:03.354Z,28.40
2019-06-20T17:34:41.485Z,28.50
2019-06-20T17:37:07.746Z,28.30
2019-06-20T17:39:36.141Z,28.40
2019-06-20T17:42:04.557Z,28.30
2019-06-20T17:44:36.120Z,28.10
2019-06-20T17:47:11.099Z,28.10
2019-06-20T17:49:48.261Z,28.00
2019-06-20T17:52:54.747Z,28.00
2019-06-20T17:55:08.003Z,27.90
2019-06-20T17:57:36.890Z,27.90
2019-06-20T18:00:10.201Z,27.80
2019-06-20T18:02:39.290Z,27.80
2019-06-20T18:05:11.061Z,27.70
2019-06-20T18:07:43.496Z,27.70
2019-06-20T18:10:18.475Z,27.70
2019-06-20T18:13:11.762Z,27.90
2019-06-20T18:15:44.199Z,27.50
2019-06-20T18:18:15.135Z,27.50
2019-06-20T18:20:43.861Z,27.50
2019-06-20T18:23:12.609Z,27.40
2019-06-20T18:25:41.251Z,27.40
2019-06-20T18:28:16.005Z,27.30
2019-06-20T18:30:44.751Z,27.30
2019-06-20T18:33:13.576Z,27.20
2019-06-20T18:35:43.342Z,27.20
2019-06-20T18:38:12.069Z,27.10
2019-06-20T18:40:40.746Z,27.00
2019-06-20T18:43:09.886Z,27.00
2019-06-20T18:45:40.119Z,26.90
2019-06-20T18:48:08.913Z,26.80
2019-06-20T18:50:37.838Z,26.80
2019-06-20T18:53:11.021Z,26.80
2019-06-20T18:55:40.466Z,26.60
2019-06-20T18:58:21.536Z,26.80
2019-06-20T19:00:56.128Z,26.70
2019-06-20T19:03:27.493Z,26.70
2019-06-20T19:06:04.157Z,26.70
2019-06-20T19:08:35.045Z,26.70
2019-06-20T19:11:06.709Z,26.60
2019-06-20T19:13:36.840Z,26.60
2019-06-20T19:16:09.132Z,26.50
2019-06-20T19:18:38.534Z,26.50
2019-06-20T19:21:07.377Z,26.50
2019-06-20T19:23:46.906Z,26.40
2019-06-20T19:26:19.549Z,26.40
2019-06-20T19:28:52.747Z,26.50
2019-06-20T19:31:21.682Z,26.30
2019-06-20T19:33:59.329Z,26.20
2019-06-20T19:36:30.920Z,26.20
2019-06-20T19:38:59.422Z,26.20
2019-06-20T19:41:27.879Z,26.10
2019-06-20T19:43:59.865Z,26.10
2019-06-20T19:46:32.734Z,26.10
2019-06-20T19:49:24.965Z,25.90
2019-06-20T19:51:53.472Z,25.90
2019-06-20T19:54:21.857Z,25.90
2019-06-20T19:56:50.329Z,25.80
2019-06-20T19:59:19.178Z,25.70
2019-06-20T20:01:47.810Z,25.70
2019-06-20T20:04:26.118Z,25.50
2019-06-20T20:06:53.818Z,25.60
2019-06-20T20:09:45.434Z,25.60
2019-06-20T20:12:18.968Z,25.60
2019-06-20T20:14:48.133Z,25.60
2019-06-20T20:17:18.923Z,25.40
2019-06-20T20:19:50.468Z,25.30
2019-06-20T20:22:25.393Z,25.20
2019-06-20T20:25:00.010Z,25.20
2019-06-20T20:27:37.615Z,25.10
2019-06-20T20:30:12.953Z,25.10
2019-06-20T20:32:41.520Z,25.10
2019-06-20T20:35:10.089Z,25.10
2019-06-20T20:37:44.042Z,25.00
2019-06-20T20:40:15.001Z,25.00
2019-06-20T20:42:47.275Z,24.90
2019-06-20T20:45:21.692Z,25.10
2019-06-20T20:48:05.919Z,24.70
2019-06-20T20:50:46.480Z,24.50
2019-06-20T20:53:45.845Z,24.50
2019-06-20T20:57:07.907Z,24.30
2019-06-20T20:59:47.229Z,24.00
2019-06-20T21:02:15.586Z,24.00
2019-06-20T21:04:46.118Z,23.90
2019-06-20T21:07:31.649Z,23.80
2019-06-20T21:10:18.083Z,23.70
2019-06-20T21:12:58.704Z,23.50
2019-06-20T21:15:35.914Z,23.60
2019-06-20T21:18:53.055Z,23.50
2019-06-20T21:21:22.001Z,23.40
2019-06-20T21:23:56.221Z,23.60
2019-06-20T21:26:26.628Z,23.30
2019-06-20T21:28:55.265Z,23.40
2019-06-20T21:32:16.931Z,23.20
2019-06-20T21:35:11.783Z,23.20
2019-06-20T21:38:17.238Z,23.10
2019-06-20T21:41:38.108Z,23.00
2019-06-20T21:44:52.471Z,23.10
2019-06-20T21:47:31.700Z,23.00
2019-06-20T21:50:16.191Z,23.20
2019-06-20T21:53:17.739Z,22.90
2019-06-20T21:59:51.089Z,23.00
2019-06-20T22:02:34.799Z,22.80
2019-06-20T22:05:15.866Z,22.70
2019-06-20T22:08:21.034Z,22.50
2019-06-20T22:11:05.462Z,22.50
2019-06-20T22:14:01.277Z,22.20
2019-06-20T22:20:33.082Z,22.00
2019-06-20T22:23:23.835Z,22.00
2019-06-20T22:26:01.779Z,21.70
2019-06-20T22:28:53.627Z,21.90
2019-06-20T22:31:39.785Z,21.60
2019-06-20T22:34:43.947Z,21.70
2019-06-20T22:52:35.773Z,21.20
2019-06-20T22:55:04.630Z,21.00
2019-06-20T22:57:33.444Z,20.70
2019-06-20T23:00:04.188Z,20.70
2019-06-20T23:02:32.859Z,20.40
2019-06-20T23:05:03.081Z,20.50
2019-06-20T23:07:31.884Z,20.40
2019-06-20T23:10:09.950Z,20.20
2019-06-20T23:12:30.646Z,20.30
2019-06-20T23:14:59.315Z,20.30
2019-06-20T23:17:30.606Z,20.20
2019-06-20T23:20:02.259Z,20.20
2019-06-20T23:22:32.617Z,20.20
2019-06-20T23:25:02.089Z,20.10
2019-06-20T23:27:31.427Z,20.10
2019-06-20T23:30:14.994Z,20.00
2019-06-20T23:32:57.345Z,19.90
2019-06-20T23:38:59.069Z,20.00
2019-06-20T23:42:25.290Z,19.70
2019-06-20T23:45:07.686Z,20.10
2019-06-20T23:47:41.361Z,19.90
2019-06-20T23:50:17.971Z,20.00
2019-06-20T23:52:51.840Z,19.90
2019-06-20T23:55:24.378Z,19.80
2019-06-20T23:58:25.709Z,19.60
